Time;durP1;ratioP1;P1;durP2;ratioP2;P2;SDS_P1;SDS_P2;PMS_P1;PMS_P2;Temp;Humidity;BMP_temperature;BMP_pressure;BME280_temperature;BME280_humidity;BME280_pressure;Samples;Min_cycle;Max_cycle;Signal;HPM_P1;HPM_P2
2022/08/29 00:01:39;;;;;;;2.27;2.07;;;24.70;55.30;;;;;;5043599;28;20434;-74
2022/08/29 00:04:07;;;;;;;3.37;1.87;;;24.70;55.30;;;;;;5034760;28;20463;-74
2022/08/29 00:06:35;;;;;;;3.23;1.67;;;24.60;55.30;;;;;;5034443;28;20443;-74
2022/08/29 00:09:04;;;;;;;2.23;1.40;;;24.60;55.30;;;;;;5052780;28;20453;-74
2022/08/29 00:11:34;;;;;;;1.87;1.70;;;24.60;55.40;;;;;;5036879;28;20439;-74
2022/08/29 00:14:02;;;;;;;2.70;2.03;;;24.60;55.40;;;;;;5036593;28;20815;-74
2022/08/29 00:16:28;;;;;;;3.20;1.73;;;24.60;55.40;;;;;;5033488;28;20971;-74
2022/08/29 00:18:54;;;;;;;3.37;1.90;;;24.50;55.40;;;;;;5052321;28;20431;-74
2022/08/29 00:21:20;;;;;;;2.50;1.80;;;24.50;55.40;;;;;;5019368;28;20446;-74
2022/08/29 00:23:49;;;;;;;2.17;1.67;;;24.50;55.40;;;;;;5045771;28;20885;-74
2022/08/29 00:26:15;;;;;;;2.83;1.60;;;24.50;55.50;;;;;;5045119;28;20420;-74
2022/08/29 00:28:43;;;;;;;2.17;1.73;;;24.50;55.50;;;;;;5033062;28;20761;-74
2022/08/29 00:31:14;;;;;;;2.00;1.80;;;24.50;55.50;;;;;;5051846;28;20438;-74
2022/08/29 00:33:42;;;;;;;3.83;1.97;;;24.50;55.50;;;;;;5035033;28;20521;-74
2022/08/29 00:36:11;;;;;;;2.80;2.00;;;24.50;55.50;;;;;;5034318;28;20419;-74
2022/08/29 00:38:37;;;;;;;4.20;1.57;;;24.40;55.40;;;;;;5049272;28;20479;-74
2022/08/29 00:41:05;;;;;;;2.57;2.13;;;24.40;55.50;;;;;;5035858;28;20469;-75
2022/08/29 00:43:34;;;;;;;3.30;2.10;;;24.40;55.50;;;;;;5048598;28;20466;-74
2022/08/29 00:46:25;;;;;;;2.53;1.70;;;24.40;55.50;;;;;;5052993;28;20422;-73
2022/08/29 00:49:30;;;;;;;2.97;2.00;;;24.40;55.60;;;;;;5034989;28;20443;-74
2022/08/29 00:52:07;;;;;;;2.60;1.83;;;24.40;55.60;;;;;;5014745;28;20438;-75
2022/08/29 00:54:37;;;;;;;2.30;1.80;;;24.30;55.60;;;;;;5032926;28;20526;-74
2022/08/29 00:57:04;;;;;;;3.37;1.90;;;24.30;55.60;;;;;;5034004;28;20772;-74
2022/08/29 00:59:36;;;;;;;5.03;2.00;;;24.30;55.60;;;;;;5031281;28;20474;-74
2022/08/29 01:02:04;;;;;;;2.40;2.00;;;24.30;55.60;;;;;;5038717;28;20469;-74
2022/08/29 01:04:32;;;;;;;2.10;1.60;;;24.30;55.70;;;;;;5051979;28;20454;-74
2022/08/29 01:07:00;;;;;;;3.50;1.93;;;24.20;55.60;;;;;;5046877;28;20438;-74
2022/08/29 01:09:29;;;;;;;1.70;1.50;;;24.20;55.70;;;;;;5052356;28;20468;-74
2022/08/29 01:12:16;;;;;;;1.87;1.67;;;24.20;55.70;;;;;;5052233;28;20415;-74
2022/08/29 01:14:48;;;;;;;1.70;1.60;;;24.20;55.70;;;;;;5040290;28;20443;-74
2022/08/29 01:17:41;;;;;;;2.10;1.57;;;24.20;55.80;;;;;;5033000;28;20451;-74
2022/08/29 01:20:24;;;;;;;3.33;2.10;;;24.20;55.80;;;;;;5037747;28;20425;-75
2022/08/29 01:23:05;;;;;;;2.50;1.90;;;24.10;55.70;;;;;;5031931;28;20985;-74
2022/08/29 01:25:43;;;;;;;3.50;1.70;;;24.10;55.80;;;;;;5066464;28;20454;-74
2022/08/29 01:28:34;;;;;;;2.47;2.10;;;24.10;55.80;;;;;;5052819;28;20492;-74
2022/08/29 01:31:10;;;;;;;2.40;2.00;;;24.10;55.80;;;;;;5031946;28;20419;-74
2022/08/29 01:33:44;;;;;;;2.43;1.60;;;24.10;55.90;;;;;;5032965;28;20481;-74
2022/08/29 01:36:14;;;;;;;2.00;1.60;;;24.00;55.80;;;;;;5032092;28;20893;-73
2022/08/29 01:38:43;;;;;;;1.80;1.40;;;24.00;55.90;;;;;;5065836;28;20975;-74
2022/08/29 01:41:12;;;;;;;2.50;1.90;;;24.00;55.90;;;;;;5051786;28;20501;-74
2022/08/29 01:43:50;;;;;;;2.00;1.70;;;24.00;55.90;;;;;;5049576;28;20450;-74
2022/08/29 01:46:28;;;;;;;2.67;1.97;;;24.00;56.00;;;;;;5015405;28;20439;-74
2022/08/29 01:48:57;;;;;;;2.37;1.97;;;24.00;56.00;;;;;;5019400;28;20422;-75
2022/08/29 01:51:25;;;;;;;2.10;1.63;;;24.00;56.00;;;;;;5033709;28;20969;-74
2022/08/29 01:53:56;;;;;;;2.03;1.70;;;23.90;56.00;;;;;;5030009;28;20554;-74
2022/08/29 01:56:29;;;;;;;2.17;1.70;;;23.90;56.00;;;;;;5031909;28;20434;-74
2022/08/29 01:59:00;;;;;;;3.43;2.60;;;23.90;56.00;;;;;;5017390;28;20430;-74
2022/08/29 02:01:30;;;;;;;3.80;1.83;;;23.90;56.00;;;;;;5052745;28;20500;-74
2022/08/29 02:03:57;;;;;;;2.40;1.87;;;23.90;56.00;;;;;;5050613;28;20537;-75
2022/08/29 02:06:28;;;;;;;2.67;1.80;;;23.90;56.00;;;;;;5052618;28;20411;-73
2022/08/29 02:08:57;;;;;;;2.60;1.50;;;23.90;56.00;;;;;;5036700;28;20414;-74
2022/08/29 02:11:23;;;;;;;1.80;1.60;;;23.90;56.10;;;;;;5050611;28;20406;-74
2022/08/29 02:14:00;;;;;;;3.30;2.33;;;23.80;56.00;;;;;;5032273;28;20455;-74
2022/08/29 02:16:50;;;;;;;2.83;2.20;;;23.80;56.00;;;;;;5035462;28;20794;-74
2022/08/29 02:19:16;;;;;;;2.33;1.97;;;23.80;56.00;;;;;;5045191;28;20534;-74
2022/08/29 02:21:45;;;;;;;2.73;2.00;;;23.80;56.00;;;;;;5050244;28;20451;-73
2022/08/29 02:24:16;;;;;;;2.50;1.90;;;23.80;56.10;;;;;;5018002;28;20527;-73
2022/08/29 02:26:43;;;;;;;2.20;1.53;;;23.70;56.00;;;;;;5006144;28;20443;-74
2022/08/29 02:29:11;;;;;;;1.90;1.70;;;23.70;56.00;;;;;;5035951;28;20572;-73
2022/08/29 02:31:39;;;;;;;2.20;1.80;;;23.70;56.00;;;;;;5017939;28;20423;-73
2022/08/29 02:34:06;;;;;;;2.30;1.87;;;23.70;56.10;;;;;;5047144;28;20458;-73
2022/08/29 02:36:34;;;;;;;2.40;2.00;;;23.70;56.10;;;;;;5032006;28;20423;-73
2022/08/29 02:39:03;;;;;;;2.20;1.70;;;23.70;56.20;;;;;;5035687;28;20422;-74
2022/08/29 02:41:31;;;;;;;3.57;2.13;;;23.70;56.10;;;;;;5050524;28;20495;-73
2022/08/29 02:44:00;;;;;;;2.80;2.00;;;23.60;56.10;;;;;;5063614;28;20485;-74
2022/08/29 02:46:29;;;;;;;3.00;1.87;;;23.60;56.20;;;;;;5031918;28;20466;-74
2022/08/29 02:49:00;;;;;;;2.60;1.67;;;23.60;56.20;;;;;;5038245;28;20416;-73
2022/08/29 02:51:34;;;;;;;2.67;2.00;;;23.60;56.20;;;;;;5039361;28;20427;-74
2022/08/29 02:54:01;;;;;;;2.57;1.60;;;23.60;56.20;;;;;;5033888;28;20446;-74
2022/08/29 02:56:28;;;;;;;3.30;1.80;;;23.60;56.20;;;;;;5033729;28;21095;-74
2022/08/29 02:58:54;;;;;;;2.53;1.60;;;23.50;56.20;;;;;;5050111;28;20434;-74
2022/08/29 03:01:24;;;;;;;2.80;2.37;;;23.50;56.20;;;;;;5049835;28;20420;-75
2022/08/29 03:03:51;;;;;;;3.23;1.87;;;23.50;56.20;;;;;;5030682;28;20460;-74
2022/08/29 03:06:18;;;;;;;2.93;2.03;;;23.50;56.30;;;;;;5031601;28;20518;-74
2022/08/29 03:08:49;;;;;;;2.43;1.83;;;23.40;56.20;;;;;;5050035;28;20472;-73
2022/08/29 03:11:16;;;;;;;2.50;1.87;;;23.40;56.20;;;;;;5038255;28;20888;-73
2022/08/29 03:13:50;;;;;;;2.50;1.73;;;23.40;56.30;;;;;;5050647;28;20505;-73
2022/08/29 03:16:17;;;;;;;1.87;1.67;;;23.40;56.30;;;;;;5049901;28;20949;-74
2022/08/29 03:18:43;;;;;;;2.30;1.40;;;23.40;56.30;;;;;;5049820;28;20454;-74
2022/08/29 03:21:19;;;;;;;2.80;2.00;;;23.40;56.30;;;;;;5029336;28;20893;-73
2022/08/29 03:23:47;;;;;;;1.90;1.63;;;23.40;56.20;;;;;;5049626;28;20572;-74
2022/08/29 03:26:16;;;;;;;2.37;1.90;;;23.30;56.20;;;;;;5030625;28;20423;-73
2022/08/29 03:28:45;;;;;;;2.07;1.43;;;23.30;56.20;;;;;;5014415;28;20419;-73
2022/08/29 03:31:11;;;;;;;2.00;1.60;;;23.30;56.30;;;;;;5044306;28;20453;-75
2022/08/29 03:33:42;;;;;;;2.53;1.90;;;23.30;56.30;;;;;;5030435;28;20460;-74
2022/08/29 03:36:09;;;;;;;4.80;2.10;;;23.30;56.20;;;;;;5050098;28;20421;-73
2022/08/29 03:38:37;;;;;;;2.40;1.80;;;23.30;56.30;;;;;;5051459;28;20409;-73
2022/08/29 03:41:06;;;;;;;2.70;1.80;;;23.30;56.30;;;;;;5035850;28;21135;-74
2022/08/29 03:43:34;;;;;;;2.90;1.83;;;23.20;56.20;;;;;;5029619;28;20472;-74
2022/08/29 03:46:05;;;;;;;3.93;2.10;;;23.20;56.20;;;;;;5033306;28;20426;-73
2022/08/29 03:48:33;;;;;;;2.53;1.63;;;23.20;56.20;;;;;;5051362;28;20429;-74
2022/08/29 03:51:01;;;;;;;3.13;2.00;;;23.20;56.20;;;;;;5034290;28;20470;-74
2022/08/29 03:53:30;;;;;;;2.80;1.87;;;23.20;56.30;;;;;;5050261;28;20438;-73
2022/08/29 03:55:57;;;;;;;3.03;1.70;;;23.10;56.20;;;;;;5031635;28;20451;-74
2022/08/29 03:58:26;;;;;;;2.27;2.07;;;23.10;56.20;;;;;;5029897;28;20969;-74
2022/08/29 04:00:52;;;;;;;1.97;1.77;;;23.10;56.20;;;;;;5046590;28;20425;-74
2022/08/29 04:03:19;;;;;;;2.23;1.60;;;23.10;56.20;;;;;;5046459;28;20471;-73
2022/08/29 04:05:47;;;;;;;3.17;1.90;;;23.10;56.20;;;;;;5015108;28;20430;-74
2022/08/29 04:08:13;;;;;;;5.10;1.90;;;23.10;56.30;;;;;;5049391;28;20473;-74
2022/08/29 04:10:41;;;;;;;1.93;1.63;;;23.10;56.30;;;;;;5049162;28;20935;-74
2022/08/29 04:13:12;;;;;;;2.50;2.30;;;23.00;56.20;;;;;;5035101;28;20456;-74
2022/08/29 04:15:42;;;;;;;3.30;1.73;;;23.00;56.20;;;;;;5032835;28;20493;-74
2022/08/29 04:18:09;;;;;;;2.90;2.60;;;23.00;56.30;;;;;;5031061;28;20443;-75
2022/08/29 04:20:43;;;;;;;1.60;1.43;;;23.00;56.20;;;;;;5013740;28;20423;-74
2022/08/29 04:23:12;;;;;;;3.20;2.00;;;23.00;56.30;;;;;;5030933;28;20554;-73
2022/08/29 04:25:41;;;;;;;3.60;2.10;;;23.00;56.30;;;;;;5030145;28;20431;-73
2022/08/29 04:28:10;;;;;;;1.90;1.60;;;23.00;56.40;;;;;;5033261;28;20443;-73
2022/08/29 04:30:38;;;;;;;3.00;2.00;;;22.90;56.30;;;;;;5035316;28;20415;-75
2022/08/29 04:33:04;;;;;;;1.77;1.67;;;22.90;56.30;;;;;;5052694;28;20442;-73
2022/08/29 04:35:34;;;;;;;2.40;2.10;;;22.90;56.30;;;;;;5051704;28;20424;-73
2022/08/29 04:38:00;;;;;;;3.13;1.70;;;22.90;56.40;;;;;;5045303;28;20426;-74
2022/08/29 04:40:29;;;;;;;3.37;2.07;;;22.90;56.40;;;;;;5052415;28;20438;-73
2022/08/29 04:42:59;;;;;;;2.77;1.97;;;22.80;56.30;;;;;;5036141;28;20442;-73
2022/08/29 04:45:26;;;;;;;2.17;1.83;;;22.80;56.40;;;;;;5033283;28;20404;-73
2022/08/29 04:47:52;;;;;;;2.60;2.20;;;22.80;56.40;;;;;;5035037;28;20982;-73
2022/08/29 04:50:20;;;;;;;2.30;1.97;;;22.80;56.40;;;;;;5053909;28;20421;-74
2022/08/29 04:52:54;;;;;;;2.37;2.03;;;22.80;56.50;;;;;;5057239;28;20555;-74
2022/08/29 04:55:22;;;;;;;4.53;2.10;;;22.80;56.50;;;;;;5033208;28;20437;-74
2022/08/29 04:57:52;;;;;;;2.60;1.97;;;22.80;56.50;;;;;;5043935;28;20787;-74
2022/08/29 05:00:21;;;;;;;2.67;1.90;;;22.70;56.50;;;;;;5052838;28;20457;-74
2022/08/29 05:02:50;;;;;;;4.03;2.10;;;22.70;56.50;;;;;;5052087;28;20492;-74
2022/08/29 05:05:19;;;;;;;2.80;1.60;;;22.70;56.50;;;;;;5036570;28;20441;-74
2022/08/29 05:07:45;;;;;;;2.60;2.40;;;22.70;56.50;;;;;;5010663;28;20864;-73
2022/08/29 05:10:17;;;;;;;2.20;2.00;;;22.60;56.50;;;;;;5069061;28;20418;-74
2022/08/29 05:12:50;;;;;;;2.80;2.00;;;22.70;56.60;;;;;;5049450;28;20445;-72
2022/08/29 05:15:22;;;;;;;3.40;2.33;;;22.70;56.60;;;;;;5045424;28;20448;-73
2022/08/29 05:17:48;;;;;;;3.90;2.20;;;22.60;56.50;;;;;;5030433;28;20431;-73
2022/08/29 05:20:16;;;;;;;2.90;2.13;;;22.60;56.60;;;;;;5030324;28;20461;-73
2022/08/29 05:22:42;;;;;;;2.43;2.00;;;22.60;56.60;;;;;;5044267;28;20477;-73
2022/08/29 05:25:11;;;;;;;2.77;1.73;;;22.60;56.60;;;;;;5045622;28;20991;-73
2022/08/29 05:27:40;;;;;;;2.60;2.40;;;22.50;56.60;;;;;;5098153;23;21478;-67
2022/08/29 05:30:09;;;;;;;2.20;2.00;;;22.50;56.70;;;;;;4993169;28;20955;-67
2022/08/29 05:32:35;;;;;;;3.03;2.20;;;22.50;56.70;;;;;;4992696;28;20446;-67
2022/08/29 05:35:04;;;;;;;2.07;1.90;;;22.50;56.70;;;;;;4994358;28;20839;-67
2022/08/29 05:37:35;;;;;;;2.67;2.13;;;22.50;56.70;;;;;;5008563;28;20424;-67
2022/08/29 05:40:04;;;;;;;2.10;1.90;;;22.50;56.70;;;;;;4992957;28;20926;-67
2022/08/29 05:42:33;;;;;;;3.30;2.23;;;22.50;56.80;;;;;;4992592;28;20425;-67
2022/08/29 05:44:59;;;;;;;2.00;1.80;;;22.40;56.70;;;;;;5009034;28;20966;-67
2022/08/29 05:47:25;;;;;;;2.83;2.10;;;22.40;56.80;;;;;;4992760;28;20938;-67
2022/08/29 05:49:53;;;;;;;3.57;2.10;;;22.40;56.80;;;;;;4993849;28;20437;-67
2022/08/29 05:52:21;;;;;;;2.30;2.10;;;22.40;56.90;;;;;;4993194;28;20444;-67
2022/08/29 05:54:49;;;;;;;3.33;2.03;;;22.40;56.90;;;;;;4992665;28;20464;-68
2022/08/29 05:57:19;;;;;;;2.17;1.87;;;22.40;57.00;;;;;;4993274;28;20460;-67
2022/08/29 05:59:49;;;;;;;2.70;2.10;;;22.40;57.00;;;;;;4993623;28;20480;-67
2022/08/29 06:02:17;;;;;;;2.80;2.30;;;22.30;56.90;;;;;;4987756;28;20441;-67
2022/08/29 06:04:44;;;;;;;2.10;1.80;;;22.30;57.00;;;;;;4974463;28;20460;-68
2022/08/29 06:07:16;;;;;;;2.53;2.10;;;22.30;57.00;;;;;;5003173;28;20433;-67
2022/08/29 06:09:45;;;;;;;3.00;2.20;;;22.30;57.10;;;;;;4975882;28;20418;-68
2022/08/29 06:12:13;;;;;;;3.73;2.20;;;22.30;57.10;;;;;;4992157;28;20440;-68
2022/08/29 06:14:40;;;;;;;2.77;2.30;;;22.30;57.20;;;;;;4992956;28;20463;-68
2022/08/29 06:17:07;;;;;;;2.63;2.37;;;22.30;57.30;;;;;;4992552;28;20433;-68
2022/08/29 06:19:34;;;;;;;2.73;2.30;;;22.30;57.30;;;;;;4992179;28;20421;-70
2022/08/29 06:22:02;;;;;;;4.47;2.37;;;22.30;57.40;;;;;;4991979;28;20540;-68
2022/08/29 06:24:32;;;;;;;3.13;1.90;;;22.30;57.40;;;;;;4991212;28;21000;-68
2022/08/29 06:27:01;;;;;;;6.10;2.87;;;22.20;57.40;;;;;;5000507;28;20990;-68
2022/08/29 06:29:27;;;;;;;4.13;2.37;;;22.20;57.40;;;;;;4983098;28;20433;-68
2022/08/29 06:31:57;;;;;;;3.70;1.83;;;22.20;57.50;;;;;;4984792;28;20418;-68
2022/08/29 06:34:29;;;;;;;2.47;1.97;;;22.20;57.50;;;;;;4982230;28;20483;-68
2022/08/29 06:36:55;;;;;;;2.40;2.13;;;22.20;57.60;;;;;;4984546;28;20425;-68
2022/08/29 06:39:21;;;;;;;3.53;2.63;;;22.20;57.60;;;;;;4982519;28;20445;-68
2022/08/29 06:41:47;;;;;;;5.27;2.60;;;22.20;57.60;;;;;;4981896;28;20830;-68
2022/08/29 06:44:14;;;;;;;3.70;1.97;;;22.20;57.60;;;;;;4982019;28;20467;-68
2022/08/29 06:46:47;;;;;;;3.20;1.90;;;22.20;57.70;;;;;;4983759;28;20423;-68
2022/08/29 06:49:17;;;;;;;3.30;2.23;;;22.20;57.70;;;;;;4985384;28;20452;-68
2022/08/29 06:51:47;;;;;;;4.03;2.13;;;22.20;57.70;;;;;;5003103;28;20414;-68
2022/08/29 06:54:15;;;;;;;2.20;2.00;;;22.20;57.80;;;;;;5007097;28;20445;-68
2022/08/29 06:56:44;;;;;;;3.03;2.30;;;22.10;57.70;;;;;;4967073;28;20971;-67
2022/08/29 06:59:11;;;;;;;2.33;1.97;;;22.20;57.90;;;;;;4982046;28;20437;-67
2022/08/29 07:01:40;;;;;;;2.20;2.00;;;22.20;57.90;;;;;;4980532;28;20793;-68
2022/08/29 07:04:06;;;;;;;3.33;2.43;;;22.20;57.90;;;;;;4980229;28;20469;-70
2022/08/29 07:06:32;;;;;;;2.93;2.23;;;22.20;57.90;;;;;;4983578;28;20591;-68
2022/08/29 07:09:00;;;;;;;3.20;2.30;;;22.20;58.00;;;;;;4990678;28;20518;-68
2022/08/29 07:11:29;;;;;;;3.20;2.40;;;22.20;58.00;;;;;;4991071;28;20421;-68
2022/08/29 07:13:57;;;;;;;4.30;2.37;;;22.20;58.10;;;;;;5004255;28;20445;-68
2022/08/29 07:16:23;;;;;;;3.43;2.30;;;22.10;58.00;;;;;;4991078;28;20453;-68
2022/08/29 07:18:52;;;;;;;2.37;2.10;;;22.10;58.00;;;;;;4992422;28;20451;-68
2022/08/29 07:21:24;;;;;;;2.97;2.33;;;22.10;58.10;;;;;;4992225;28;20454;-68
2022/08/29 07:23:52;;;;;;;4.77;2.00;;;22.10;58.10;;;;;;4974299;28;20854;-68
2022/08/29 07:26:35;;;;;;;3.70;2.77;;;22.20;58.20;;;;;;4990163;28;20421;-68
2022/08/29 07:29:15;;;;;;;4.13;2.37;;;22.10;58.10;;;;;;4990314;28;20576;-68
2022/08/29 07:31:42;;;;;;;4.37;2.30;;;22.10;58.20;;;;;;5007129;28;20472;-68
2022/08/29 07:34:11;;;;;;;3.23;2.13;;;22.10;58.20;;;;;;5007389;28;20460;-68
2022/08/29 07:36:37;;;;;;;3.50;2.63;;;22.10;58.30;;;;;;4991498;28;20437;-68
2022/08/29 07:39:07;;;;;;;4.00;2.57;;;22.10;58.40;;;;;;4989779;28;20445;-68
2022/08/29 07:41:33;;;;;;;2.53;2.33;;;22.10;58.30;;;;;;5002073;28;20437;-68
2022/08/29 07:44:01;;;;;;;3.00;2.70;;;22.10;58.40;;;;;;4990492;28;20484;-68
2022/08/29 07:46:27;;;;;;;4.70;2.63;;;22.10;58.40;;;;;;4990289;28;20818;-68
2022/08/29 07:48:56;;;;;;;4.90;3.17;;;22.10;58.40;;;;;;4990383;28;20428;-68
2022/08/29 07:51:25;;;;;;;3.37;2.20;;;22.10;58.40;;;;;;4986059;28;20440;-69
2022/08/29 07:53:55;;;;;;;6.23;2.63;;;22.10;58.40;;;;;;4996201;28;20543;-68
2022/08/29 07:56:30;;;;;;;5.30;3.00;;;22.10;58.50;;;;;;5010725;28;20432;-68
2022/08/29 07:59:01;;;;;;;4.47;2.50;;;22.20;58.60;;;;;;4955459;28;20550;-68
2022/08/29 08:01:27;;;;;;;4.23;2.67;;;22.10;58.50;;;;;;4991283;28;20441;-68
2022/08/29 08:03:53;;;;;;;4.10;2.73;;;22.10;58.50;;;;;;4995097;28;20511;-68
2022/08/29 08:06:24;;;;;;;4.40;2.53;;;22.10;58.50;;;;;;4992344;28;20825;-69
2022/08/29 08:08:55;;;;;;;2.77;2.40;;;22.10;58.60;;;;;;4987529;28;20448;-69
2022/08/29 08:11:22;;;;;;;4.13;2.50;;;22.20;58.70;;;;;;5002425;28;20498;-69
2022/08/29 08:13:50;;;;;;;3.40;2.50;;;22.20;58.70;;;;;;5000408;28;20481;-70
2022/08/29 08:16:21;;;;;;;3.80;2.63;;;22.10;58.60;;;;;;4994450;28;20431;-71
2022/08/29 08:18:50;;;;;;;4.80;2.30;;;22.10;58.60;;;;;;5001281;28;20454;-69
2022/08/29 08:21:18;;;;;;;5.00;2.63;;;22.20;58.70;;;;;;4992846;28;20969;-70
2022/08/29 08:23:51;;;;;;;3.33;2.67;;;22.20;58.70;;;;;;4995462;28;20472;-71
2022/08/29 08:26:18;;;;;;;3.17;2.20;;;22.20;58.70;;;;;;4985896;28;20450;-69
2022/08/29 08:28:46;;;;;;;4.20;2.20;;;22.20;58.70;;;;;;4989499;28;20444;-72
2022/08/29 08:31:13;;;;;;;3.30;2.37;;;22.20;58.70;;;;;;4990394;28;20422;-72
2022/08/29 08:33:43;;;;;;;4.50;2.50;;;22.20;58.60;;;;;;4977376;28;20487;-74
2022/08/29 08:36:19;;;;;;;3.50;2.47;;;22.20;58.60;;;;;;4993738;28;20934;-73
2022/08/29 08:38:49;;;;;;;3.70;2.37;;;22.20;58.60;;;;;;4992003;28;20471;-72
2022/08/29 08:41:48;;;;;;;5.70;2.10;;;22.20;58.60;;;;;;5009660;28;20438;-70
2022/08/29 08:44:23;;;;;;;2.97;2.20;;;22.20;58.60;;;;;;4992274;28;20472;-71
2022/08/29 08:46:58;;;;;;;3.00;2.40;;;22.20;58.60;;;;;;5007935;28;20433;-70
2022/08/29 08:49:46;;;;;;;3.30;2.17;;;22.20;58.60;;;;;;4992860;28;20456;-69
2022/08/29 08:52:17;;;;;;;3.10;2.30;;;22.20;58.50;;;;;;4991551;28;20462;-70
2022/08/29 08:54:54;;;;;;;4.23;2.50;;;22.20;58.50;;;;;;4993429;28;20538;-70
2022/08/29 08:57:21;;;;;;;3.97;2.70;;;22.20;58.50;;;;;;4991801;28;20532;-70
2022/08/29 08:59:56;;;;;;;5.10;3.13;;;22.20;58.50;;;;;;4991334;28;20451;-70
2022/08/29 09:02:41;;;;;;;2.63;2.00;;;22.30;58.60;;;;;;5007354;28;20421;-70
2022/08/29 09:05:34;;;;;;;2.70;2.20;;;22.30;58.60;;;;;;4991292;28;20464;-69
2022/08/29 09:08:09;;;;;;;4.83;2.67;;;22.30;58.60;;;;;;5006076;28;20544;-70
2022/08/29 09:10:55;;;;;;;7.33;2.50;;;22.30;58.50;;;;;;4991481;28;20482;-70
2022/08/29 09:13:30;;;;;;;3.93;2.13;;;22.30;58.50;;;;;;4981618;28;20547;-70
2022/08/29 09:16:04;;;;;;;6.60;3.40;;;22.40;59.20;;;;;;5005773;28;20918;-70
2022/08/29 09:18:39;;;;;;;4.20;2.47;;;22.40;58.60;;;;;;4989608;28;20436;-70
2022/08/29 09:21:18;;;;;;;3.33;2.50;;;22.40;58.60;;;;;;4989728;28;20845;-70
2022/08/29 09:23:56;;;;;;;3.50;2.50;;;22.40;58.60;;;;;;4995464;28;20468;-70
2022/08/29 09:26:26;;;;;;;4.37;2.43;;;22.40;58.60;;;;;;4992290;28;20460;-70
2022/08/29 09:28:56;;;;;;;3.87;2.70;;;22.40;58.50;;;;;;4991731;28;20440;-70
2022/08/29 09:31:34;;;;;;;4.30;3.13;;;22.50;58.60;;;;;;4992184;28;20409;-70
2022/08/29 09:34:09;;;;;;;5.40;2.60;;;22.50;58.60;;;;;;4991117;28;21001;-70
2022/08/29 09:36:43;;;;;;;3.30;2.57;;;22.50;58.50;;;;;;4990882;28;20508;-70
2022/08/29 09:39:23;;;;;;;3.80;3.03;;;22.50;58.50;;;;;;4991514;28;21044;-71
2022/08/29 09:42:10;;;;;;;3.00;2.30;;;22.50;58.50;;;;;;5007022;28;20467;-70
2022/08/29 09:45:01;;;;;;;3.90;3.10;;;22.60;58.50;;;;;;4990351;28;20472;-70
2022/08/29 09:47:32;;;;;;;3.40;2.30;;;22.50;58.40;;;;;;5006803;28;20449;-70
2022/08/29 09:50:24;;;;;;;4.60;3.13;;;22.60;58.40;;;;;;4991718;28;20495;-70
2022/08/29 09:53:00;;;;;;;3.97;2.87;;;22.60;58.40;;;;;;4990702;28;20452;-69
2022/08/29 09:55:33;;;;;;;3.03;2.73;;;22.60;58.30;;;;;;4990672;28;20417;-70
2022/08/29 09:58:06;;;;;;;4.33;2.70;;;22.70;58.40;;;;;;4989872;28;20537;-70
2022/08/29 10:00:39;;;;;;;3.90;2.90;;;22.70;58.40;;;;;;4988987;28;20452;-70
2022/08/29 10:03:20;;;;;;;3.00;2.67;;;22.70;58.90;;;;;;4990949;28;20455;-70
2022/08/29 10:06:03;;;;;;;4.40;2.90;;;22.70;58.30;;;;;;4990223;28;20802;-70
2022/08/29 10:08:35;;;;;;;5.30;2.90;;;22.80;58.30;;;;;;4991248;28;20465;-70
2022/08/29 10:11:07;;;;;;;4.53;2.60;;;22.80;58.80;;;;;;5005867;28;20535;-70
2022/08/29 10:13:42;;;;;;;5.30;3.23;;;22.80;58.20;;;;;;4990647;28;20487;-70
2022/08/29 10:16:27;;;;;;;4.87;2.73;;;22.90;58.20;;;;;;4991656;28;20424;-70
2022/08/29 10:19:04;;;;;;;5.10;3.23;;;22.90;58.10;;;;;;4991202;28;20511;-70
2022/08/29 10:21:48;;;;;;;3.60;3.07;;;22.90;58.10;;;;;;4990398;28;20426;-70
2022/08/29 10:24:36;;;;;;;3.27;2.60;;;22.90;58.00;;;;;;4990851;28;20481;-70
2022/08/29 10:27:09;;;;;;;3.80;2.80;;;23.00;58.00;;;;;;4973453;28;20395;-69
2022/08/29 10:29:38;;;;;;;2.97;2.67;;;23.00;58.00;;;;;;4990344;28;20472;-70
2022/08/29 10:32:07;;;;;;;3.83;3.00;;;23.00;58.00;;;;;;4991106;28;20394;-70
2022/08/29 10:34:52;;;;;;;4.17;3.10;;;23.00;57.90;;;;;;4990709;28;20916;-70
2022/08/29 10:37:33;;;;;;;3.17;2.87;;;23.00;57.80;;;;;;4991050;28;20438;-70
2022/08/29 10:40:10;;;;;;;5.20;3.00;;;23.00;57.80;;;;;;4991295;28;20960;-69
2022/08/29 10:42:42;;;;;;;5.47;3.47;;;23.10;57.80;;;;;;4990982;28;20452;-69
2022/08/29 10:45:17;;;;;;;4.97;2.50;;;23.10;57.80;;;;;;4989625;28;20452;-70
2022/08/29 10:47:52;;;;;;;4.43;3.00;;;23.10;57.70;;;;;;5006186;28;20502;-70
2022/08/29 10:50:31;;;;;;;4.33;3.23;;;23.10;57.60;;;;;;4990148;28;20461;-70
2022/08/29 10:53:09;;;;;;;3.17;2.40;;;23.20;57.60;;;;;;4990408;28;20475;-70
2022/08/29 10:55:45;;;;;;;4.87;2.97;;;23.20;57.60;;;;;;4973453;28;20456;-70
2022/08/29 10:59:01;;;;;;;4.33;3.00;;;23.20;57.50;;;;;;4973773;28;21022;-70
2022/08/29 11:01:36;;;;;;;4.70;3.03;;;23.20;57.50;;;;;;4989628;28;21178;-70
2022/08/29 11:04:16;;;;;;;3.40;3.03;;;23.30;57.50;;;;;;4990298;28;21015;-69
2022/08/29 11:06:52;;;;;;;5.20;3.40;;;23.30;57.50;;;;;;5006053;28;20938;-69
2022/08/29 11:09:34;;;;;;;4.50;3.10;;;23.30;57.50;;;;;;5005447;28;20419;-70
2022/08/29 11:12:12;;;;;;;4.23;3.33;;;23.30;57.40;;;;;;4989831;28;20882;-70
2022/08/29 11:15:13;;;;;;;7.10;3.63;;;23.40;57.50;;;;;;5005950;28;20447;-71
2022/08/29 11:17:43;;;;;;;3.93;2.77;;;23.40;57.40;;;;;;4981612;28;20760;-70
2022/08/29 11:20:23;;;;;;;3.33;2.93;;;23.40;57.40;;;;;;4989273;28;20977;-70
2022/08/29 11:22:58;;;;;;;4.50;2.93;;;23.40;57.30;;;;;;4991098;28;20437;-70
2022/08/29 11:25:24;;;;;;;3.17;2.90;;;23.50;57.30;;;;;;4989301;28;20984;-70
2022/08/29 11:27:56;;;;;;;3.07;2.53;;;23.50;57.20;;;;;;4988962;28;20455;-70
2022/08/29 11:30:39;;;;;;;3.90;2.90;;;23.60;57.30;;;;;;4988848;28;20460;-70
2022/08/29 11:33:23;;;;;;;4.43;3.47;;;23.60;57.30;;;;;;5005627;28;20440;-70
2022/08/29 11:36:18;;;;;;;4.00;2.90;;;23.60;57.20;;;;;;4991078;28;20471;-70
2022/08/29 11:39:15;;;;;;;6.13;3.13;;;23.60;57.10;;;;;;4993595;28;20417;-70
2022/08/29 11:41:45;;;;;;;4.33;3.03;;;23.70;57.10;;;;;;5004423;28;20468;-70
2022/08/29 11:44:25;;;;;;;4.53;3.50;;;23.70;57.00;;;;;;4993267;28;20465;-70
2022/08/29 11:46:51;;;;;;;4.50;2.90;;;23.70;56.90;;;;;;4993626;28;20444;-70
2022/08/29 11:49:23;;;;;;;3.07;2.73;;;23.80;57.00;;;;;;4993043;28;20572;-70
2022/08/29 11:51:57;;;;;;;3.83;3.40;;;23.80;56.90;;;;;;4992580;28;20418;-70
2022/08/29 11:54:46;;;;;;;4.43;3.30;;;23.80;56.80;;;;;;5014435;28;20456;-70
2022/08/29 11:57:12;;;;;;;5.70;3.50;;;23.80;56.80;;;;;;4992857;28;20523;-70
2022/08/29 11:59:44;;;;;;;5.07;2.97;;;23.90;56.80;;;;;;4993408;28;20568;-70
2022/08/29 12:02:30;;;;;;;4.07;3.30;;;23.90;56.60;;;;;;4993262;28;20433;-70
2022/08/29 12:05:04;;;;;;;4.97;3.60;;;24.00;56.60;;;;;;4991589;28;20472;-70
2022/08/29 12:07:54;;;;;;;4.57;3.17;;;24.00;56.50;;;;;;4992086;28;20440;-70
2022/08/29 12:10:23;;;;;;;6.03;3.47;;;24.00;56.30;;;;;;4994284;28;20402;-70
2022/08/29 12:13:02;;;;;;;5.60;3.60;;;24.00;56.20;;;;;;4994195;28;20647;-70
2022/08/29 12:15:31;;;;;;;3.07;2.77;;;24.10;56.30;;;;;;5008827;28;20417;-70
2022/08/29 12:18:08;;;;;;;3.03;2.60;;;24.10;56.30;;;;;;5009071;28;20508;-70
2022/08/29 12:20:52;;;;;;;5.20;3.13;;;24.10;56.20;;;;;;5007965;28;20539;-70
2022/08/29 12:23:27;;;;;;;3.47;3.17;;;24.20;56.20;;;;;;4992362;28;20527;-70
2022/08/29 12:26:04;;;;;;;4.57;3.10;;;24.20;56.30;;;;;;4994062;28;20835;-70
2022/08/29 12:28:56;;;;;;;3.00;2.53;;;24.20;56.20;;;;;;4991971;28;20520;-70
2022/08/29 12:31:50;;;;;;;5.20;3.53;;;24.20;56.10;;;;;;4993738;28;20421;-70
2022/08/29 12:34:45;;;;;;;4.00;3.00;;;24.20;56.00;;;;;;4989022;28;21131;-70
2022/08/29 12:37:32;;;;;;;3.63;3.30;;;24.30;56.10;;;;;;4989028;28;20425;-70
2022/08/29 12:40:35;;;;;;;4.60;3.43;;;24.30;56.10;;;;;;4992658;28;20444;-70
2022/08/29 12:43:07;;;;;;;4.10;3.00;;;24.30;56.00;;;;;;4991430;28;20490;-70
2022/08/29 12:45:40;;;;;;;4.67;3.40;;;24.40;56.00;;;;;;4991592;28;20923;-70
2022/08/29 12:48:27;;;;;;;4.20;3.23;;;24.40;55.90;;;;;;4991119;28;20429;-70
2022/08/29 12:50:55;;;;;;;3.97;3.50;;;24.40;55.70;;;;;;5007977;28;20548;-70
2022/08/29 12:53:33;;;;;;;3.87;3.00;;;24.40;55.60;;;;;;4991685;28;20453;-70
2022/08/29 12:56:20;;;;;;;4.80;3.07;;;24.50;55.60;;;;;;4993506;28;20431;-70
2022/08/29 12:58:52;;;;;;;3.77;3.37;;;24.50;55.50;;;;;;4991819;28;20405;-70
2022/08/29 13:01:32;;;;;;;3.90;2.83;;;24.50;55.50;;;;;;4975775;28;20420;-70
2022/08/29 13:04:03;;;;;;;4.87;2.57;;;24.60;55.50;;;;;;5007595;28;20522;-70
2022/08/29 13:06:31;;;;;;;3.87;3.37;;;24.60;55.50;;;;;;4975875;28;20438;-70
2022/08/29 13:08:57;;;;;;;3.73;2.80;;;24.70;55.50;;;;;;4992846;28;20537;-70
2022/08/29 13:11:29;;;;;;;3.57;2.80;;;24.60;55.30;;;;;;4975670;28;20413;-70
2022/08/29 13:14:10;;;;;;;4.23;2.63;;;24.70;55.20;;;;;;4998665;28;20454;-70
2022/08/29 13:16:40;;;;;;;3.33;2.90;;;24.70;55.10;;;;;;4991614;28;20488;-70